sensor_id;sensor_type;location;lat;lon;timestamp;pressure;altitude;pressure_sealevel;temperature;humidity
25350;BME280;13302;48.796;11.978;2023-03-03T00:00:46;96859.09;;;5.84;32.44
25350;BME280;13302;48.796;11.978;2023-03-03T00:03:33;96852.78;;;5.83;32.18
25350;BME280;13302;48.796;11.978;2023-03-03T00:06:21;96851.69;;;5.84;32.23
25350;BME280;13302;48.796;11.978;2023-03-03T00:09:07;96861.34;;;5.82;32.13
25350;BME280;13302;48.796;11.978;2023-03-03T00:11:56;96860.06;;;5.79;31.71
25350;BME280;13302;48.796;11.978;2023-03-03T00:14:44;96861.81;;;5.75;31.82
25350;BME280;13302;48.796;11.978;2023-03-03T00:17:32;96861.97;;;5.70;31.98
25350;BME280;13302;48.796;11.978;2023-03-03T00:23:20;96865.31;;;5.59;32.16
25350;BME280;13302;48.796;11.978;2023-03-03T00:26:30;96876.94;;;5.56;32.50
25350;BME280;13302;48.796;11.978;2023-03-03T00:29:27;96870.66;;;5.55;32.36
25350;BME280;13302;48.796;11.978;2023-03-03T00:32:17;96873.09;;;5.57;32.37
25350;BME280;13302;48.796;11.978;2023-03-03T00:35:31;96872.09;;;5.52;32.36
25350;BME280;13302;48.796;11.978;2023-03-03T00:38:25;96871.44;;;5.47;32.47
25350;BME280;13302;48.796;11.978;2023-03-03T00:41:23;96876.22;;;5.41;32.44
25350;BME280;13302;48.796;11.978;2023-03-03T00:44:38;96884.63;;;5.36;32.48
25350;BME280;13302;48.796;11.978;2023-03-03T00:50:32;96885.75;;;5.35;32.75
25350;BME280;13302;48.796;11.978;2023-03-03T00:53:21;96881.38;;;5.34;33.01
25350;BME280;13302;48.796;11.978;2023-03-03T00:56:09;96880.56;;;5.34;32.31
25350;BME280;13302;48.796;11.978;2023-03-03T00:58:56;96870.25;;;5.31;31.99
25350;BME280;13302;48.796;11.978;2023-03-03T01:01:45;96867.16;;;5.24;32.14
25350;BME280;13302;48.796;11.978;2023-03-03T01:04:32;96862.94;;;5.18;32.32
25350;BME280;13302;48.796;11.978;2023-03-03T01:07:19;96867.94;;;5.16;32.28
25350;BME280;13302;48.796;11.978;2023-03-03T01:10:06;96875.34;;;5.15;32.57
25350;BME280;13302;48.796;11.978;2023-03-03T01:12:54;96867.94;;;5.16;32.59
25350;BME280;13302;48.796;11.978;2023-03-03T01:15:42;96864.97;;;5.12;32.05
25350;BME280;13302;48.796;11.978;2023-03-03T01:18:29;96867.88;;;5.07;32.05
25350;BME280;13302;48.796;11.978;2023-03-03T01:21:16;96859.50;;;5.03;32.30
25350;BME280;13302;48.796;11.978;2023-03-03T01:24:04;96858.00;;;4.97;32.51
25350;BME280;13302;48.796;11.978;2023-03-03T01:26:51;96862.19;;;4.95;32.86
25350;BME280;13302;48.796;11.978;2023-03-03T01:29:38;96857.00;;;4.93;32.92
25350;BME280;13302;48.796;11.978;2023-03-03T01:32:27;96862.50;;;4.93;32.94
25350;BME280;13302;48.796;11.978;2023-03-03T01:35:14;96870.06;;;4.96;32.91
25350;BME280;13302;48.796;11.978;2023-03-03T01:38:01;96870.25;;;5.00;32.96
25350;BME280;13302;48.796;11.978;2023-03-03T01:40:53;96867.22;;;5.01;32.88
25350;BME280;13302;48.796;11.978;2023-03-03T01:43:45;96874.78;;;5.04;32.86
25350;BME280;13302;48.796;11.978;2023-03-03T01:47:12;96865.44;;;5.05;32.86
25350;BME280;13302;48.796;11.978;2023-03-03T01:49:59;96870.13;;;5.05;32.80
25350;BME280;13302;48.796;11.978;2023-03-03T01:52:47;96872.03;;;5.04;32.75
25350;BME280;13302;48.796;11.978;2023-03-03T01:55:36;96869.63;;;5.03;32.61
25350;BME280;13302;48.796;11.978;2023-03-03T01:58:29;96870.75;;;5.02;32.89
25350;BME280;13302;48.796;11.978;2023-03-03T02:01:24;96876.53;;;5.00;32.73
25350;BME280;13302;48.796;11.978;2023-03-03T02:04:12;96869.47;;;4.99;32.94
25350;BME280;13302;48.796;11.978;2023-03-03T02:07:02;96867.03;;;4.98;32.76
25350;BME280;13302;48.796;11.978;2023-03-03T02:10:06;96868.16;;;4.97;32.79
25350;BME280;13302;48.796;11.978;2023-03-03T02:12:56;96867.34;;;4.96;32.13
25350;BME280;13302;48.796;11.978;2023-03-03T02:15:43;96873.44;;;4.93;31.92
25350;BME280;13302;48.796;11.978;2023-03-03T02:18:30;96872.47;;;4.89;32.10
25350;BME280;13302;48.796;11.978;2023-03-03T02:21:20;96875.31;;;4.84;32.33
25350;BME280;13302;48.796;11.978;2023-03-03T02:24:21;96869.38;;;4.82;32.41
25350;BME280;13302;48.796;11.978;2023-03-03T02:27:11;96870.97;;;4.83;32.70
25350;BME280;13302;48.796;11.978;2023-03-03T02:30:11;96870.19;;;4.83;32.81
25350;BME280;13302;48.796;11.978;2023-03-03T02:33:00;96867.09;;;4.84;33.10
25350;BME280;13302;48.796;11.978;2023-03-03T02:35:47;96869.03;;;4.84;32.94
25350;BME280;13302;48.796;11.978;2023-03-03T02:42:15;96874.84;;;4.82;33.18
25350;BME280;13302;48.796;11.978;2023-03-03T02:45:09;96878.56;;;4.86;33.16
25350;BME280;13302;48.796;11.978;2023-03-03T02:47:56;96875.84;;;4.86;32.98
25350;BME280;13302;48.796;11.978;2023-03-03T02:50:43;96873.91;;;4.87;33.30
25350;BME280;13302;48.796;11.978;2023-03-03T02:53:30;96879.69;;;4.85;32.87
25350;BME280;13302;48.796;11.978;2023-03-03T02:56:17;96871.28;;;4.82;32.75
25350;BME280;13302;48.796;11.978;2023-03-03T02:59:04;96880.16;;;4.79;32.90
25350;BME280;13302;48.796;11.978;2023-03-03T03:01:56;96879.94;;;4.75;33.07
25350;BME280;13302;48.796;11.978;2023-03-03T03:04:43;96880.75;;;4.76;33.17
25350;BME280;13302;48.796;11.978;2023-03-03T03:07:34;96879.94;;;4.75;33.50
25350;BME280;13302;48.796;11.978;2023-03-03T03:10:22;96874.47;;;4.75;33.20
25350;BME280;13302;48.796;11.978;2023-03-03T03:13:10;96875.91;;;4.73;32.75
25350;BME280;13302;48.796;11.978;2023-03-03T03:15:58;96877.31;;;4.70;32.97
25350;BME280;13302;48.796;11.978;2023-03-03T03:18:46;96874.06;;;4.68;33.24
25350;BME280;13302;48.796;11.978;2023-03-03T03:21:33;96870.03;;;4.66;33.44
25350;BME280;13302;48.796;11.978;2023-03-03T03:24:21;96877.63;;;4.69;33.47
25350;BME280;13302;48.796;11.978;2023-03-03T03:27:14;96868.28;;;4.70;33.60
25350;BME280;13302;48.796;11.978;2023-03-03T03:30:02;96871.25;;;4.73;33.80
25350;BME280;13302;48.796;11.978;2023-03-03T03:32:50;96873.69;;;4.75;33.69
25350;BME280;13302;48.796;11.978;2023-03-03T03:35:37;96877.19;;;4.75;33.86
25350;BME280;13302;48.796;11.978;2023-03-03T03:38:26;96874.16;;;4.77;34.10
25350;BME280;13302;48.796;11.978;2023-03-03T03:41:15;96874.66;;;4.79;33.97
25350;BME280;13302;48.796;11.978;2023-03-03T03:44:02;96876.25;;;4.80;34.12
25350;BME280;13302;48.796;11.978;2023-03-03T03:46:50;96867.56;;;4.78;33.49
25350;BME280;13302;48.796;11.978;2023-03-03T03:49:37;96868.69;;;4.77;33.44
25350;BME280;13302;48.796;11.978;2023-03-03T03:52:24;96863.50;;;4.75;33.42
25350;BME280;13302;48.796;11.978;2023-03-03T03:55:11;96861.09;;;4.74;33.64
25350;BME280;13302;48.796;11.978;2023-03-03T03:58:00;96869.63;;;4.72;33.37
25350;BME280;13302;48.796;11.978;2023-03-03T04:00:47;96865.22;;;4.71;33.51
25350;BME280;13302;48.796;11.978;2023-03-03T04:03:35;96872.16;;;4.69;33.29
25350;BME280;13302;48.796;11.978;2023-03-03T04:06:26;96877.13;;;4.67;33.34
25350;BME280;13302;48.796;11.978;2023-03-03T04:09:13;96873.59;;;4.66;33.73
25350;BME280;13302;48.796;11.978;2023-03-03T04:12:00;96873.06;;;4.64;33.52
25350;BME280;13302;48.796;11.978;2023-03-03T04:14:49;96872.25;;;4.63;33.05
25350;BME280;13302;48.796;11.978;2023-03-03T04:17:36;96869.53;;;4.63;33.43
25350;BME280;13302;48.796;11.978;2023-03-03T04:20:23;96872.91;;;4.60;32.99
25350;BME280;13302;48.796;11.978;2023-03-03T04:23:12;96872.72;;;4.57;32.97
25350;BME280;13302;48.796;11.978;2023-03-03T04:26:01;96874.94;;;4.55;33.05
25350;BME280;13302;48.796;11.978;2023-03-03T04:28:48;96879.94;;;4.53;33.15
25350;BME280;13302;48.796;11.978;2023-03-03T04:31:36;96886.81;;;4.50;32.81
25350;BME280;13302;48.796;11.978;2023-03-03T04:34:25;96890.19;;;4.47;32.92
25350;BME280;13302;48.796;11.978;2023-03-03T04:37:13;96892.44;;;4.45;32.80
25350;BME280;13302;48.796;11.978;2023-03-03T04:40:01;96894.19;;;4.41;33.14
25350;BME280;13302;48.796;11.978;2023-03-03T04:42:49;96893.19;;;4.37;32.98
25350;BME280;13302;48.796;11.978;2023-03-03T04:45:36;96891.38;;;4.33;32.94
25350;BME280;13302;48.796;11.978;2023-03-03T04:48:23;96886.50;;;4.30;32.81
25350;BME280;13302;48.796;11.978;2023-03-03T04:51:10;96890.97;;;4.26;33.02
25350;BME280;13302;48.796;11.978;2023-03-03T04:53:57;96895.16;;;4.23;33.02
25350;BME280;13302;48.796;11.978;2023-03-03T04:56:44;96892.53;;;4.18;33.10
25350;BME280;13302;48.796;11.978;2023-03-03T04:59:32;96896.69;;;4.15;32.98
25350;BME280;13302;48.796;11.978;2023-03-03T05:02:19;96901.34;;;4.15;33.11
25350;BME280;13302;48.796;11.978;2023-03-03T05:05:08;96896.50;;;4.12;33.06
25350;BME280;13302;48.796;11.978;2023-03-03T05:07:59;96902.28;;;4.10;32.86
25350;BME280;13302;48.796;11.978;2023-03-03T05:10:50;96913.22;;;4.10;32.93
25350;BME280;13302;48.796;11.978;2023-03-03T05:13:37;96904.81;;;4.07;32.84
25350;BME280;13302;48.796;11.978;2023-03-03T05:16:24;96911.72;;;4.04;32.84
25350;BME280;13302;48.796;11.978;2023-03-03T05:19:12;96910.41;;;4.02;32.91
25350;BME280;13302;48.796;11.978;2023-03-03T05:21:59;96906.06;;;4.01;33.39
25350;BME280;13302;48.796;11.978;2023-03-03T05:24:46;96905.25;;;4.00;32.83
25350;BME280;13302;48.796;11.978;2023-03-03T05:27:35;96904.44;;;4.00;32.90
25350;BME280;13302;48.796;11.978;2023-03-03T05:30:21;96912.94;;;3.98;32.93
25350;BME280;13302;48.796;11.978;2023-03-03T05:33:12;96907.28;;;3.95;33.30
25350;BME280;13302;48.796;11.978;2023-03-03T05:35:59;96912.47;;;3.96;33.25
25350;BME280;13302;48.796;11.978;2023-03-03T05:38:46;96921.16;;;3.98;33.16
25350;BME280;13302;48.796;11.978;2023-03-03T05:41:33;96911.03;;;3.99;33.42
25350;BME280;13302;48.796;11.978;2023-03-03T05:44:22;96908.28;;;3.99;33.08
25350;BME280;13302;48.796;11.978;2023-03-03T05:47:09;96912.94;;;3.98;33.16
25350;BME280;13302;48.796;11.978;2023-03-03T05:49:56;96911.66;;;3.96;33.22
25350;BME280;13302;48.796;11.978;2023-03-03T05:52:43;96912.47;;;3.96;33.48
25350;BME280;13302;48.796;11.978;2023-03-03T05:55:30;96919.03;;;3.95;33.53
25350;BME280;13302;48.796;11.978;2023-03-03T05:58:17;96920.66;;;3.96;33.72
25350;BME280;13302;48.796;11.978;2023-03-03T06:01:04;96930.16;;;3.99;33.76
25350;BME280;13302;48.796;11.978;2023-03-03T06:03:51;96920.03;;;3.99;33.77
25350;BME280;13302;48.796;11.978;2023-03-03T06:06:38;96933.09;;;4.02;33.89
25350;BME280;13302;48.796;11.978;2023-03-03T06:09:25;96924.28;;;4.05;34.00
25350;BME280;13302;48.796;11.978;2023-03-03T06:12:13;96931.38;;;4.06;34.11
25350;BME280;13302;48.796;11.978;2023-03-03T06:15:00;96931.88;;;4.08;34.20
25350;BME280;13302;48.796;11.978;2023-03-03T06:17:47;96928.81;;;4.10;34.16
25350;BME280;13302;48.796;11.978;2023-03-03T06:20:34;96934.47;;;4.13;34.27
25350;BME280;13302;48.796;11.978;2023-03-03T06:23:22;96922.75;;;4.13;34.20
25350;BME280;13302;48.796;11.978;2023-03-03T06:26:09;96932.88;;;4.12;34.18
25350;BME280;13302;48.796;11.978;2023-03-03T06:28:56;96939.47;;;4.11;34.44
25350;BME280;13302;48.796;11.978;2023-03-03T06:31:43;96947.16;;;4.09;34.58
25350;BME280;13302;48.796;11.978;2023-03-03T06:34:31;96955.59;;;4.13;34.56
25350;BME280;13302;48.796;11.978;2023-03-03T06:37:18;96953.84;;;4.17;34.65
25350;BME280;13302;48.796;11.978;2023-03-03T06:40:06;96958.09;;;4.23;34.80
25350;BME280;13302;48.796;11.978;2023-03-03T06:42:53;96961.53;;;4.29;35.10
25350;BME280;13302;48.796;11.978;2023-03-03T06:45:40;96966.38;;;4.32;34.96
25350;BME280;13302;48.796;11.978;2023-03-03T06:48:28;96970.13;;;4.36;34.83
25350;BME280;13302;48.796;11.978;2023-03-03T06:51:35;96969.81;;;4.37;34.59
25350;BME280;13302;48.796;11.978;2023-03-03T06:54:27;96972.22;;;4.39;34.86
25350;BME280;13302;48.796;11.978;2023-03-03T06:57:31;96974.38;;;4.42;34.93
25350;BME280;13302;48.796;11.978;2023-03-03T07:00:26;96977.09;;;4.42;35.26
25350;BME280;13302;48.796;11.978;2023-03-03T07:03:19;96991.28;;;4.44;35.46
25350;BME280;13302;48.796;11.978;2023-03-03T07:06:19;96978.72;;;4.43;35.42
25350;BME280;13302;48.796;11.978;2023-03-03T07:09:22;96982.44;;;4.47;35.48
25350;BME280;13302;48.796;11.978;2023-03-03T07:12:12;96984.06;;;4.48;35.72
25350;BME280;13302;48.796;11.978;2023-03-03T07:15:15;96991.66;;;4.51;35.65
25350;BME280;13302;48.796;11.978;2023-03-03T07:18:19;96995.53;;;4.50;35.70
25350;BME280;13302;48.796;11.978;2023-03-03T07:21:15;96989.72;;;4.51;35.92
25350;BME280;13302;48.796;11.978;2023-03-03T07:24:21;96996.03;;;4.52;35.90
25350;BME280;13302;48.796;11.978;2023-03-03T07:27:28;96991.56;;;4.56;35.91
25350;BME280;13302;48.796;11.978;2023-03-03T07:30:23;96999.94;;;4.59;36.03
25350;BME280;13302;48.796;11.978;2023-03-03T07:33:25;97004.22;;;4.66;36.03
25350;BME280;13302;48.796;11.978;2023-03-03T07:36:39;96997.00;;;4.70;36.11
25350;BME280;13302;48.796;11.978;2023-03-03T07:39:34;97005.13;;;4.75;36.29
25350;BME280;13302;48.796;11.978;2023-03-03T07:42:37;96995.94;;;4.79;36.06
25350;BME280;13302;48.796;11.978;2023-03-03T07:45:36;97006.78;;;4.84;35.99
25350;BME280;13302;48.796;11.978;2023-03-03T07:48:30;97009.41;;;4.89;36.14
25350;BME280;13302;48.796;11.978;2023-03-03T07:51:26;97010.91;;;4.95;35.84
25350;BME280;13302;48.796;11.978;2023-03-03T07:57:26;97010.66;;;5.05;35.15
25350;BME280;13302;48.796;11.978;2023-03-03T08:03:07;97007.47;;;5.12;34.88
25350;BME280;13302;48.796;11.978;2023-03-03T08:05:59;97007.47;;;5.12;34.92
25350;BME280;13302;48.796;11.978;2023-03-03T08:09:01;97012.34;;;5.15;34.68
25350;BME280;13302;48.796;11.978;2023-03-03T08:11:53;97022.38;;;5.20;34.62
25350;BME280;13302;48.796;11.978;2023-03-03T08:14:41;97016.28;;;5.23;34.51
25350;BME280;13302;48.796;11.978;2023-03-03T08:17:35;97023.56;;;5.27;34.55
25350;BME280;13302;48.796;11.978;2023-03-03T08:20:41;97019.38;;;5.30;34.33
25350;BME280;13302;48.796;11.978;2023-03-03T08:23:30;97026.66;;;5.34;34.24
25350;BME280;13302;48.796;11.978;2023-03-03T08:26:18;97024.09;;;5.38;34.26
25350;BME280;13302;48.796;11.978;2023-03-03T08:29:05;97030.91;;;5.40;34.09
25350;BME280;13302;48.796;11.978;2023-03-03T08:31:52;97026.72;;;5.43;34.06
25350;BME280;13302;48.796;11.978;2023-03-03T08:34:39;97027.19;;;5.45;33.73
25350;BME280;13302;48.796;11.978;2023-03-03T08:37:26;97024.97;;;5.47;33.87
25350;BME280;13302;48.796;11.978;2023-03-03T08:40:14;97033.19;;;5.47;33.80
25350;BME280;13302;48.796;11.978;2023-03-03T08:43:01;97031.25;;;5.47;33.84
25350;BME280;13302;48.796;11.978;2023-03-03T08:45:50;97044.34;;;5.50;33.66
25350;BME280;13302;48.796;11.978;2023-03-03T08:48:37;97033.88;;;5.52;33.81
25350;BME280;13302;48.796;11.978;2023-03-03T08:51:24;97035.16;;;5.55;33.63
25350;BME280;13302;48.796;11.978;2023-03-03T08:54:12;97037.28;;;5.58;33.57
25350;BME280;13302;48.796;11.978;2023-03-03T08:56:59;97033.91;;;5.61;33.54
25350;BME280;13302;48.796;11.978;2023-03-03T08:59:46;97039.25;;;5.66;33.40
25350;BME280;13302;48.796;11.978;2023-03-03T09:02:33;97049.28;;;5.71;33.49
25350;BME280;13302;48.796;11.978;2023-03-03T09:05:22;97048.84;;;5.77;33.42
25350;BME280;13302;48.796;11.978;2023-03-03T09:08:09;97058.84;;;5.82;33.48
25350;BME280;13302;48.796;11.978;2023-03-03T09:10:56;97057.59;;;5.88;33.74
25350;BME280;13302;48.796;11.978;2023-03-03T09:13:43;97060.53;;;5.91;33.50
25350;BME280;13302;48.796;11.978;2023-03-03T09:16:36;97052.47;;;5.95;33.59
25350;BME280;13302;48.796;11.978;2023-03-03T09:19:29;97055.88;;;6.00;33.66
25350;BME280;13302;48.796;11.978;2023-03-03T09:22:20;97062.22;;;6.10;33.42
25350;BME280;13302;48.796;11.978;2023-03-03T09:25:20;97065.34;;;6.17;33.54
25350;BME280;13302;48.796;11.978;2023-03-03T09:28:31;97056.63;;;6.23;33.51
25350;BME280;13302;48.796;11.978;2023-03-03T09:37:28;97072.84;;;6.42;33.28
25350;BME280;13302;48.796;11.978;2023-03-03T09:47:33;97082.28;;;6.58;33.34
25350;BME280;13302;48.796;11.978;2023-03-03T09:53:59;97083.91;;;6.68;33.02
25350;BME280;13302;48.796;11.978;2023-03-03T10:06:48;97087.66;;;6.98;33.54
25350;BME280;13302;48.796;11.978;2023-03-03T10:12:48;97072.94;;;7.11;33.18
25350;BME280;13302;48.796;11.978;2023-03-03T10:18:42;97069.22;;;7.24;33.01
25350;BME280;13302;48.796;11.978;2023-03-03T10:21:39;97074.22;;;7.30;32.85
25350;BME280;13302;48.796;11.978;2023-03-03T10:24:43;97071.34;;;7.35;32.88
25350;BME280;13302;48.796;11.978;2023-03-03T10:27:59;97068.09;;;7.42;32.91
25350;BME280;13302;48.796;11.978;2023-03-03T10:34:15;97069.41;;;7.53;32.79
25350;BME280;13302;48.796;11.978;2023-03-03T10:37:20;97069.38;;;7.62;32.92
25350;BME280;13302;48.796;11.978;2023-03-03T10:40:32;97074.38;;;7.68;32.74
25350;BME280;13302;48.796;11.978;2023-03-03T10:50:06;97072.56;;;7.90;32.87
25350;BME280;13302;48.796;11.978;2023-03-03T10:56:21;97079.66;;;7.99;32.74
25350;BME280;13302;48.796;11.978;2023-03-03T11:02:20;97074.59;;;8.10;32.62
25350;BME280;13302;48.796;11.978;2023-03-03T11:05:18;97074.88;;;8.17;32.74
25350;BME280;13302;48.796;11.978;2023-03-03T11:08:16;97074.22;;;8.20;32.58
25350;BME280;13302;48.796;11.978;2023-03-03T11:14:12;97074.66;;;8.30;32.64
25350;BME280;13302;48.796;11.978;2023-03-03T11:32:31;97053.81;;;8.80;32.72
25350;BME280;13302;48.796;11.978;2023-03-03T11:35:44;97052.16;;;8.87;32.66
25350;BME280;13302;48.796;11.978;2023-03-03T11:38:55;97052.41;;;8.94;32.13
25350;BME280;13302;48.796;11.978;2023-03-03T11:42:23;97041.53;;;8.98;32.33
25350;BME280;13302;48.796;11.978;2023-03-03T11:48:15;97035.28;;;9.09;32.28
25350;BME280;13302;48.796;11.978;2023-03-03T11:51:14;97038.78;;;9.18;32.14
25350;BME280;13302;48.796;11.978;2023-03-03T11:57:26;97039.63;;;9.31;31.93
25350;BME280;13302;48.796;11.978;2023-03-03T12:03:39;97029.06;;;9.33;31.82
25350;BME280;13302;48.796;11.978;2023-03-03T12:06:52;97021.72;;;9.37;31.82
25350;BME280;13302;48.796;11.978;2023-03-03T12:23:14;97008.09;;;9.53;31.45
25350;BME280;13302;48.796;11.978;2023-03-03T12:26:12;97006.41;;;9.60;31.51
25350;BME280;13302;48.796;11.978;2023-03-03T12:32:22;97018.78;;;9.75;31.68
25350;BME280;13302;48.796;11.978;2023-03-03T12:35:23;97017.38;;;9.81;31.68
25350;BME280;13302;48.796;11.978;2023-03-03T12:44:22;97004.53;;;9.97;31.13
25350;BME280;13302;48.796;11.978;2023-03-03T12:50:30;96997.75;;;10.07;31.33
25350;BME280;13302;48.796;11.978;2023-03-03T12:56:52;96996.03;;;10.14;31.16
25350;BME280;13302;48.796;11.978;2023-03-03T12:59:58;96987.84;;;10.18;31.06
25350;BME280;13302;48.796;11.978;2023-03-03T13:02:56;96989.13;;;10.21;31.26
25350;BME280;13302;48.796;11.978;2023-03-03T13:06:06;96992.81;;;10.25;31.07
25350;BME280;13302;48.796;11.978;2023-03-03T13:09:00;96986.59;;;10.28;30.97
25350;BME280;13302;48.796;11.978;2023-03-03T13:12:27;96987.84;;;10.30;31.00
25350;BME280;13302;48.796;11.978;2023-03-03T13:15:30;96984.75;;;10.32;30.89
25350;BME280;13302;48.796;11.978;2023-03-03T13:18:54;96986.00;;;10.34;30.87
25350;BME280;13302;48.796;11.978;2023-03-03T13:21:52;96988.53;;;10.39;30.97
25350;BME280;13302;48.796;11.978;2023-03-03T13:24:53;96981.97;;;10.44;31.16
25350;BME280;13302;48.796;11.978;2023-03-03T13:27:44;96984.94;;;10.51;30.64
25350;BME280;13302;48.796;11.978;2023-03-03T13:30:39;96977.13;;;10.53;31.04
25350;BME280;13302;48.796;11.978;2023-03-03T13:33:33;96967.81;;;10.57;30.71
25350;BME280;13302;48.796;11.978;2023-03-03T13:36:33;96972.66;;;10.61;30.57
25350;BME280;13302;48.796;11.978;2023-03-03T13:39:28;96970.78;;;10.65;30.52
25350;BME280;13302;48.796;11.978;2023-03-03T13:45:20;96965.94;;;10.74;30.58
25350;BME280;13302;48.796;11.978;2023-03-03T13:54:41;96975.16;;;10.78;30.78
25350;BME280;13302;48.796;11.978;2023-03-03T13:57:44;96967.75;;;10.82;30.41
25350;BME280;13302;48.796;11.978;2023-03-03T14:01:03;96971.78;;;10.84;30.57
25350;BME280;13302;48.796;11.978;2023-03-03T14:16:53;96965.63;;;11.03;30.13
25350;BME280;13302;48.796;11.978;2023-03-03T14:19:52;96963.28;;;11.05;30.18
25350;BME280;13302;48.796;11.978;2023-03-03T14:22:56;96959.00;;;11.08;30.29
25350;BME280;13302;48.796;11.978;2023-03-03T14:25:57;96964.66;;;11.11;30.03
25350;BME280;13302;48.796;11.978;2023-03-03T14:28:47;96968.69;;;11.14;29.89
25350;BME280;13302;48.796;11.978;2023-03-03T14:31:40;96956.00;;;11.13;30.21
25350;BME280;13302;48.796;11.978;2023-03-03T14:37:23;96948.16;;;11.15;29.70
25350;BME280;13302;48.796;11.978;2023-03-03T14:40:21;96958.44;;;11.14;29.57
25350;BME280;13302;48.796;11.978;2023-03-03T14:43:25;96952.88;;;11.14;29.66
25350;BME280;13302;48.796;11.978;2023-03-03T14:46:38;96950.13;;;11.14;29.67
25350;BME280;13302;48.796;11.978;2023-03-03T14:49:30;96944.59;;;11.14;29.67
25350;BME280;13302;48.796;11.978;2023-03-03T14:52:22;96943.44;;;11.15;29.61
25350;BME280;13302;48.796;11.978;2023-03-03T14:55:49;96940.31;;;11.17;29.76
25350;BME280;13302;48.796;11.978;2023-03-03T14:58:39;96935.22;;;11.19;29.42
25350;BME280;13302;48.796;11.978;2023-03-03T15:01:34;96939.63;;;11.20;29.70
25350;BME280;13302;48.796;11.978;2023-03-03T15:04:25;96936.84;;;11.20;29.85
25350;BME280;13302;48.796;11.978;2023-03-03T15:10:12;96934.19;;;11.23;29.48
25350;BME280;13302;48.796;11.978;2023-03-03T15:13:23;96935.41;;;11.26;29.63
25350;BME280;13302;48.796;11.978;2023-03-03T15:16:21;96928.75;;;11.27;29.52
25350;BME280;13302;48.796;11.978;2023-03-03T15:19:42;96929.53;;;11.27;29.52
25350;BME280;13302;48.796;11.978;2023-03-03T15:22:47;96924.69;;;11.24;29.59
25350;BME280;13302;48.796;11.978;2023-03-03T15:25:40;96928.28;;;11.25;29.26
25350;BME280;13302;48.796;11.978;2023-03-03T15:38:46;96934.88;;;11.20;29.44
25350;BME280;13302;48.796;11.978;2023-03-03T15:42:26;96933.28;;;11.19;29.08
25350;BME280;13302;48.796;11.978;2023-03-03T15:45:20;96936.38;;;11.18;29.11
25350;BME280;13302;48.796;11.978;2023-03-03T15:55:30;96937.44;;;11.13;29.36
25350;BME280;13302;48.796;11.978;2023-03-03T15:58:47;96940.22;;;11.13;29.21
25350;BME280;13302;48.796;11.978;2023-03-03T16:01:50;96941.34;;;11.12;29.18
25350;BME280;13302;48.796;11.978;2023-03-03T16:04:58;96940.22;;;11.13;28.94
25350;BME280;13302;48.796;11.978;2023-03-03T16:11:08;96943.78;;;11.14;29.19
25350;BME280;13302;48.796;11.978;2023-03-03T16:17:12;96945.66;;;11.10;29.20
25350;BME280;13302;48.796;11.978;2023-03-03T16:20:21;96943.69;;;11.10;29.11
25350;BME280;13302;48.796;11.978;2023-03-03T16:23:22;96952.69;;;11.07;28.82
25350;BME280;13302;48.796;11.978;2023-03-03T16:26:45;96960.88;;;11.03;28.87
25350;BME280;13302;48.796;11.978;2023-03-03T16:29:46;96960.34;;;10.98;28.65
25350;BME280;13302;48.796;11.978;2023-03-03T16:38:40;96969.00;;;10.84;28.57
25350;BME280;13302;48.796;11.978;2023-03-03T16:45:19;96970.19;;;10.71;28.94
25350;BME280;13302;48.796;11.978;2023-03-03T16:54:35;96977.13;;;10.53;29.44
25350;BME280;13302;48.796;11.978;2023-03-03T16:57:43;96986.69;;;10.43;29.36
25350;BME280;13302;48.796;11.978;2023-03-03T17:00:51;96989.22;;;10.36;29.43
25350;BME280;13302;48.796;11.978;2023-03-03T17:06:58;96996.13;;;10.18;29.49
25350;BME280;13302;48.796;11.978;2023-03-03T17:09:57;97006.03;;;10.07;29.68
25350;BME280;13302;48.796;11.978;2023-03-03T17:13:02;97003.38;;;9.98;29.72
25350;BME280;13302;48.796;11.978;2023-03-03T17:19:15;97014.28;;;9.83;29.66
25350;BME280;13302;48.796;11.978;2023-03-03T17:22:18;97016.66;;;9.72;29.67
25350;BME280;13302;48.796;11.978;2023-03-03T17:25:20;97015.63;;;9.64;29.83
25350;BME280;13302;48.796;11.978;2023-03-03T17:28:37;97019.59;;;9.55;29.90
25350;BME280;13302;48.796;11.978;2023-03-03T17:31:38;97014.16;;;9.46;29.93
25350;BME280;13302;48.796;11.978;2023-03-03T17:34:46;97015.41;;;9.37;30.12
25350;BME280;13302;48.796;11.978;2023-03-03T17:38:01;97025.81;;;9.31;30.01
25350;BME280;13302;48.796;11.978;2023-03-03T17:44:09;97025.31;;;9.17;30.08
25350;BME280;13302;48.796;11.978;2023-03-03T17:47:04;97030.41;;;9.06;30.31
25350;BME280;13302;48.796;11.978;2023-03-03T17:56:20;97047.19;;;8.81;30.34
25350;BME280;13302;48.796;11.978;2023-03-03T18:05:54;97051.72;;;8.56;30.43
25350;BME280;13302;48.796;11.978;2023-03-03T18:12:09;97062.63;;;8.44;30.78
25350;BME280;13302;48.796;11.978;2023-03-03T18:17:58;97057.16;;;8.35;30.73
25350;BME280;13302;48.796;11.978;2023-03-03T18:21:13;97066.41;;;8.30;30.77
25350;BME280;13302;48.796;11.978;2023-03-03T18:27:34;97070.19;;;8.17;30.75
25350;BME280;13302;48.796;11.978;2023-03-03T18:30:24;97071.66;;;8.15;30.89
25350;BME280;13302;48.796;11.978;2023-03-03T18:33:12;97071.34;;;8.08;30.98
25350;BME280;13302;48.796;11.978;2023-03-03T18:36:14;97064.09;;;8.03;30.91
25350;BME280;13302;48.796;11.978;2023-03-03T18:39:03;97071.72;;;7.98;30.84
25350;BME280;13302;48.796;11.978;2023-03-03T18:48:09;97075.47;;;7.84;31.07
25350;BME280;13302;48.796;11.978;2023-03-03T18:50:56;97076.13;;;7.81;31.02
25350;BME280;13302;48.796;11.978;2023-03-03T18:54:02;97074.38;;;7.77;30.84
25350;BME280;13302;48.796;11.978;2023-03-03T18:59:52;97087.00;;;7.69;31.13
25350;BME280;13302;48.796;11.978;2023-03-03T19:02:50;97082.16;;;7.66;31.15
25350;BME280;13302;48.796;11.978;2023-03-03T19:05:47;97083.97;;;7.62;31.07
25350;BME280;13302;48.796;11.978;2023-03-03T19:08:42;97087.34;;;7.59;30.99
25350;BME280;13302;48.796;11.978;2023-03-03T19:20:12;97097.69;;;7.28;31.64